sensor_id;sensor_type;location;lat;lon;timestamp;temperature;humidity
25708;DHT22;13567;61.652;17.100;2022-10-16T00:01:14;3.90;99.90
25708;DHT22;13567;61.652;17.100;2022-10-16T00:03:43;3.80;99.90
25708;DHT22;13567;61.652;17.100;2022-10-16T00:06:11;3.80;99.90
25708;DHT22;13567;61.652;17.100;2022-10-16T00:08:38;3.90;99.90
25708;DHT22;13567;61.652;17.100;2022-10-16T00:11:09;4.00;99.90
25708;DHT22;13567;61.652;17.100;2022-10-16T00:13:39;4.10;99.90
25708;DHT22;13567;61.652;17.100;2022-10-16T00:16:07;4.10;99.90
25708;DHT22;13567;61.652;17.100;2022-10-16T00:18:35;4.10;99.90
25708;DHT22;13567;61.652;17.100;2022-10-16T00:21:16;4.10;99.90
25708;DHT22;13567;61.652;17.100;2022-10-16T00:23:43;4.10;99.90
25708;DHT22;13567;61.652;17.100;2022-10-16T00:26:14;4.10;99.90
25708;DHT22;13567;61.652;17.100;2022-10-16T00:28:41;4.00;99.90
25708;DHT22;13567;61.652;17.100;2022-10-16T00:31:11;4.00;99.90
25708;DHT22;13567;61.652;17.100;2022-10-16T00:33:39;4.00;99.90
25708;DHT22;13567;61.652;17.100;2022-10-16T00:36:09;3.90;99.90
25708;DHT22;13567;61.652;17.100;2022-10-16T00:38:36;4.00;99.90
25708;DHT22;13567;61.652;17.100;2022-10-16T00:41:05;4.10;99.90
25708;DHT22;13567;61.652;17.100;2022-10-16T00:43:51;4.10;99.90
25708;DHT22;13567;61.652;17.100;2022-10-16T00:46:20;4.20;99.90
25708;DHT22;13567;61.652;17.100;2022-10-16T00:51:25;4.30;99.90
25708;DHT22;13567;61.652;17.100;2022-10-16T00:53:55;4.40;99.90
25708;DHT22;13567;61.652;17.100;2022-10-16T00:56:22;4.40;99.90
25708;DHT22;13567;61.652;17.100;2022-10-16T00:58:49;4.40;99.90
25708;DHT22;13567;61.652;17.100;2022-10-16T01:01:16;4.40;99.90
25708;DHT22;13567;61.652;17.100;2022-10-16T01:03:43;4.40;99.90
25708;DHT22;13567;61.652;17.100;2022-10-16T01:06:29;4.40;99.90
25708;DHT22;13567;61.652;17.100;2022-10-16T01:09:13;4.50;99.90
25708;DHT22;13567;61.652;17.100;2022-10-16T01:14:32;4.60;99.90
25708;DHT22;13567;61.652;17.100;2022-10-16T01:17:15;4.70;99.90
25708;DHT22;13567;61.652;17.100;2022-10-16T01:23:04;4.70;99.90
25708;DHT22;13567;61.652;17.100;2022-10-16T01:28:30;4.80;99.90
25708;DHT22;13567;61.652;17.100;2022-10-16T01:31:00;4.80;99.90
25708;DHT22;13567;61.652;17.100;2022-10-16T01:33:34;4.80;99.90
25708;DHT22;13567;61.652;17.100;2022-10-16T01:36:08;4.80;99.90
25708;DHT22;13567;61.652;17.100;2022-10-16T01:38:38;4.90;99.90
25708;DHT22;13567;61.652;17.100;2022-10-16T01:41:30;4.90;99.90
25708;DHT22;13567;61.652;17.100;2022-10-16T01:44:04;4.90;99.90
25708;DHT22;13567;61.652;17.100;2022-10-16T01:46:35;5.00;99.90
25708;DHT22;13567;61.652;17.100;2022-10-16T01:49:03;5.00;99.90
25708;DHT22;13567;61.652;17.100;2022-10-16T01:51:30;5.00;99.90
25708;DHT22;13567;61.652;17.100;2022-10-16T01:53:59;5.00;99.90
25708;DHT22;13567;61.652;17.100;2022-10-16T01:56:28;5.00;99.90
25708;DHT22;13567;61.652;17.100;2022-10-16T01:59:01;5.10;99.90
25708;DHT22;13567;61.652;17.100;2022-10-16T02:01:33;5.10;99.90
25708;DHT22;13567;61.652;17.100;2022-10-16T02:04:09;5.10;99.90
25708;DHT22;13567;61.652;17.100;2022-10-16T02:06:37;5.10;99.90
25708;DHT22;13567;61.652;17.100;2022-10-16T02:09:04;5.10;99.90
25708;DHT22;13567;61.652;17.100;2022-10-16T02:11:31;5.20;99.90
25708;DHT22;13567;61.652;17.100;2022-10-16T02:14:06;5.20;99.90
25708;DHT22;13567;61.652;17.100;2022-10-16T02:16:36;5.20;99.90
25708;DHT22;13567;61.652;17.100;2022-10-16T02:19:04;5.20;99.90
25708;DHT22;13567;61.652;17.100;2022-10-16T02:21:53;5.20;99.90
25708;DHT22;13567;61.652;17.100;2022-10-16T02:24:25;5.30;99.90
25708;DHT22;13567;61.652;17.100;2022-10-16T02:27:06;5.30;99.90
25708;DHT22;13567;61.652;17.100;2022-10-16T02:29:40;5.30;99.90
25708;DHT22;13567;61.652;17.100;2022-10-16T02:32:12;5.30;99.90
25708;DHT22;13567;61.652;17.100;2022-10-16T02:34:42;5.30;99.90
25708;DHT22;13567;61.652;17.100;2022-10-16T02:37:11;5.30;99.90
25708;DHT22;13567;61.652;17.100;2022-10-16T02:39:39;5.30;99.90
25708;DHT22;13567;61.652;17.100;2022-10-16T02:42:12;5.40;99.90
25708;DHT22;13567;61.652;17.100;2022-10-16T02:44:40;5.40;99.90
25708;DHT22;13567;61.652;17.100;2022-10-16T02:47:07;5.40;99.90
25708;DHT22;13567;61.652;17.100;2022-10-16T02:49:34;5.40;99.90
25708;DHT22;13567;61.652;17.100;2022-10-16T02:52:01;5.50;99.90
25708;DHT22;13567;61.652;17.100;2022-10-16T02:54:28;5.50;99.90
25708;DHT22;13567;61.652;17.100;2022-10-16T02:56:55;5.60;99.90
25708;DHT22;13567;61.652;17.100;2022-10-16T02:59:22;5.60;99.90
25708;DHT22;13567;61.652;17.100;2022-10-16T03:01:54;5.60;99.90
25708;DHT22;13567;61.652;17.100;2022-10-16T03:04:21;5.60;99.90
25708;DHT22;13567;61.652;17.100;2022-10-16T03:06:48;5.70;99.90
25708;DHT22;13567;61.652;17.100;2022-10-16T03:09:15;5.70;99.90
25708;DHT22;13567;61.652;17.100;2022-10-16T03:11:42;5.80;99.90
25708;DHT22;13567;61.652;17.100;2022-10-16T03:14:09;5.90;99.90
25708;DHT22;13567;61.652;17.100;2022-10-16T03:16:36;5.90;99.90
25708;DHT22;13567;61.652;17.100;2022-10-16T03:19:03;5.90;99.90
25708;DHT22;13567;61.652;17.100;2022-10-16T03:21:30;6.00;99.90
25708;DHT22;13567;61.652;17.100;2022-10-16T03:23:57;6.10;99.90
25708;DHT22;13567;61.652;17.100;2022-10-16T03:26:24;6.10;99.90
25708;DHT22;13567;61.652;17.100;2022-10-16T03:28:51;6.10;99.90
25708;DHT22;13567;61.652;17.100;2022-10-16T03:31:18;6.10;99.90
25708;DHT22;13567;61.652;17.100;2022-10-16T03:33:45;6.00;99.90
25708;DHT22;13567;61.652;17.100;2022-10-16T03:36:12;6.00;99.90
25708;DHT22;13567;61.652;17.100;2022-10-16T03:38:39;6.00;99.90
25708;DHT22;13567;61.652;17.100;2022-10-16T03:41:06;6.00;99.90
25708;DHT22;13567;61.652;17.100;2022-10-16T03:43:34;6.00;99.90
25708;DHT22;13567;61.652;17.100;2022-10-16T03:46:01;6.00;99.90
25708;DHT22;13567;61.652;17.100;2022-10-16T03:48:29;6.10;99.90
25708;DHT22;13567;61.652;17.100;2022-10-16T03:50:56;6.20;99.90
25708;DHT22;13567;61.652;17.100;2022-10-16T03:53:23;6.30;99.90
25708;DHT22;13567;61.652;17.100;2022-10-16T03:55:50;6.40;99.90
25708;DHT22;13567;61.652;17.100;2022-10-16T03:58:17;6.50;99.90
25708;DHT22;13567;61.652;17.100;2022-10-16T04:00:45;6.60;99.90
25708;DHT22;13567;61.652;17.100;2022-10-16T04:03:13;6.80;99.90
25708;DHT22;13567;61.652;17.100;2022-10-16T04:05:40;7.10;99.90
25708;DHT22;13567;61.652;17.100;2022-10-16T04:08:09;7.20;99.90
25708;DHT22;13567;61.652;17.100;2022-10-16T04:10:36;7.30;99.90
25708;DHT22;13567;61.652;17.100;2022-10-16T04:13:03;7.40;99.90
25708;DHT22;13567;61.652;17.100;2022-10-16T04:15:30;7.50;99.90
25708;DHT22;13567;61.652;17.100;2022-10-16T04:17:57;7.70;99.90
25708;DHT22;13567;61.652;17.100;2022-10-16T04:20:24;7.80;99.90
25708;DHT22;13567;61.652;17.100;2022-10-16T04:22:51;8.00;99.90
25708;DHT22;13567;61.652;17.100;2022-10-16T04:25:18;8.00;99.90
25708;DHT22;13567;61.652;17.100;2022-10-16T04:27:45;8.20;99.90
25708;DHT22;13567;61.652;17.100;2022-10-16T04:30:12;8.40;99.90
25708;DHT22;13567;61.652;17.100;2022-10-16T04:32:40;8.50;99.90
25708;DHT22;13567;61.652;17.100;2022-10-16T04:35:07;8.60;99.90
25708;DHT22;13567;61.652;17.100;2022-10-16T04:37:34;8.60;99.90
25708;DHT22;13567;61.652;17.100;2022-10-16T04:40:01;8.50;99.90
25708;DHT22;13567;61.652;17.100;2022-10-16T04:42:29;8.50;99.90
25708;DHT22;13567;61.652;17.100;2022-10-16T04:44:56;8.60;99.90
25708;DHT22;13567;61.652;17.100;2022-10-16T04:47:22;8.60;99.90
25708;DHT22;13567;61.652;17.100;2022-10-16T04:49:50;8.60;99.90
25708;DHT22;13567;61.652;17.100;2022-10-16T04:52:17;8.70;99.90
25708;DHT22;13567;61.652;17.100;2022-10-16T04:54:45;8.70;99.90
25708;DHT22;13567;61.652;17.100;2022-10-16T04:57:12;8.80;99.90
25708;DHT22;13567;61.652;17.100;2022-10-16T04:59:39;8.80;99.90
25708;DHT22;13567;61.652;17.100;2022-10-16T05:02:06;8.80;99.90
25708;DHT22;13567;61.652;17.100;2022-10-16T05:04:33;8.80;99.90
25708;DHT22;13567;61.652;17.100;2022-10-16T05:07:00;8.80;99.90
25708;DHT22;13567;61.652;17.100;2022-10-16T05:09:27;8.80;99.90
25708;DHT22;13567;61.652;17.100;2022-10-16T05:11:54;8.70;99.90
25708;DHT22;13567;61.652;17.100;2022-10-16T05:14:21;8.70;99.90
25708;DHT22;13567;61.652;17.100;2022-10-16T05:16:48;8.60;99.90
25708;DHT22;13567;61.652;17.100;2022-10-16T05:19:16;8.60;99.90
25708;DHT22;13567;61.652;17.100;2022-10-16T05:21:58;8.50;99.90
25708;DHT22;13567;61.652;17.100;2022-10-16T05:24:25;8.50;99.90
25708;DHT22;13567;61.652;17.100;2022-10-16T05:26:53;8.50;99.90
25708;DHT22;13567;61.652;17.100;2022-10-16T05:29:20;8.40;99.90
25708;DHT22;13567;61.652;17.100;2022-10-16T05:31:50;8.40;99.90
25708;DHT22;13567;61.652;17.100;2022-10-16T05:34:18;8.40;99.90
25708;DHT22;13567;61.652;17.100;2022-10-16T05:36:45;8.40;99.90
25708;DHT22;13567;61.652;17.100;2022-10-16T05:39:14;8.50;99.90
25708;DHT22;13567;61.652;17.100;2022-10-16T05:41:41;8.50;99.90
25708;DHT22;13567;61.652;17.100;2022-10-16T05:44:08;8.60;99.90
25708;DHT22;13567;61.652;17.100;2022-10-16T05:46:35;8.60;99.90
25708;DHT22;13567;61.652;17.100;2022-10-16T05:49:02;8.50;99.90
25708;DHT22;13567;61.652;17.100;2022-10-16T05:51:29;8.50;99.90
25708;DHT22;13567;61.652;17.100;2022-10-16T05:53:56;8.50;99.90
25708;DHT22;13567;61.652;17.100;2022-10-16T05:56:23;8.50;99.90
25708;DHT22;13567;61.652;17.100;2022-10-16T05:58:50;8.50;99.90
25708;DHT22;13567;61.652;17.100;2022-10-16T06:01:18;8.50;99.90
25708;DHT22;13567;61.652;17.100;2022-10-16T06:03:47;8.40;99.90
25708;DHT22;13567;61.652;17.100;2022-10-16T06:06:17;8.40;99.90
25708;DHT22;13567;61.652;17.100;2022-10-16T06:08:45;8.40;99.90
25708;DHT22;13567;61.652;17.100;2022-10-16T06:11:18;8.40;99.90
25708;DHT22;13567;61.652;17.100;2022-10-16T06:13:49;8.30;99.90
25708;DHT22;13567;61.652;17.100;2022-10-16T06:16:16;8.40;99.90
25708;DHT22;13567;61.652;17.100;2022-10-16T06:18:44;8.60;99.90
25708;DHT22;13567;61.652;17.100;2022-10-16T06:21:19;8.60;99.90
25708;DHT22;13567;61.652;17.100;2022-10-16T06:23:47;8.60;99.90
25708;DHT22;13567;61.652;17.100;2022-10-16T06:26:16;8.60;99.90
25708;DHT22;13567;61.652;17.100;2022-10-16T06:28:44;8.70;99.90
25708;DHT22;13567;61.652;17.100;2022-10-16T06:31:12;8.90;99.90
25708;DHT22;13567;61.652;17.100;2022-10-16T06:33:40;9.30;99.90
25708;DHT22;13567;61.652;17.100;2022-10-16T06:36:13;9.70;99.90
25708;DHT22;13567;61.652;17.100;2022-10-16T06:38:41;10.30;99.90
25708;DHT22;13567;61.652;17.100;2022-10-16T06:41:12;11.30;99.90
25708;DHT22;13567;61.652;17.100;2022-10-16T06:43:39;12.20;99.90
25708;DHT22;13567;61.652;17.100;2022-10-16T06:46:07;12.90;99.90
25708;DHT22;13567;61.652;17.100;2022-10-16T06:48:36;13.70;99.90
25708;DHT22;13567;61.652;17.100;2022-10-16T06:51:05;14.10;99.90
25708;DHT22;13567;61.652;17.100;2022-10-16T06:53:34;14.50;99.90
25708;DHT22;13567;61.652;17.100;2022-10-16T06:56:17;15.10;99.90
25708;DHT22;13567;61.652;17.100;2022-10-16T06:58:44;15.80;99.90
25708;DHT22;13567;61.652;17.100;2022-10-16T07:01:12;15.90;99.90
25708;DHT22;13567;61.652;17.100;2022-10-16T07:03:41;16.20;99.90
25708;DHT22;13567;61.652;17.100;2022-10-16T07:06:10;16.00;99.90
25708;DHT22;13567;61.652;17.100;2022-10-16T07:08:40;15.70;99.90
25708;DHT22;13567;61.652;17.100;2022-10-16T07:11:10;15.70;99.90
25708;DHT22;13567;61.652;17.100;2022-10-16T07:13:38;16.20;99.90
25708;DHT22;13567;61.652;17.100;2022-10-16T07:16:13;16.70;99.90
25708;DHT22;13567;61.652;17.100;2022-10-16T07:18:41;16.70;99.90
25708;DHT22;13567;61.652;17.100;2022-10-16T07:23:39;16.40;99.90
25708;DHT22;13567;61.652;17.100;2022-10-16T07:26:07;16.60;99.90
25708;DHT22;13567;61.652;17.100;2022-10-16T07:28:34;17.00;99.90
25708;DHT22;13567;61.652;17.100;2022-10-16T07:31:03;17.10;99.90
25708;DHT22;13567;61.652;17.100;2022-10-16T07:33:32;17.60;99.90
25708;DHT22;13567;61.652;17.100;2022-10-16T07:35:59;17.80;99.90
25708;DHT22;13567;61.652;17.100;2022-10-16T07:38:26;18.20;99.90
25708;DHT22;13567;61.652;17.100;2022-10-16T07:41:01;18.80;99.90
25708;DHT22;13567;61.652;17.100;2022-10-16T07:43:28;18.40;99.90
25708;DHT22;13567;61.652;17.100;2022-10-16T07:45:56;18.20;99.90
25708;DHT22;13567;61.652;17.100;2022-10-16T07:48:28;18.00;99.90
25708;DHT22;13567;61.652;17.100;2022-10-16T07:50:59;19.00;99.90
25708;DHT22;13567;61.652;17.100;2022-10-16T07:53:27;19.90;99.90
25708;DHT22;13567;61.652;17.100;2022-10-16T07:56:02;20.30;99.90
25708;DHT22;13567;61.652;17.100;2022-10-16T07:58:30;20.20;99.90
25708;DHT22;13567;61.652;17.100;2022-10-16T08:00:57;20.10;99.90
25708;DHT22;13567;61.652;17.100;2022-10-16T08:03:25;18.20;99.90
25708;DHT22;13567;61.652;17.100;2022-10-16T08:05:52;17.60;99.90
25708;DHT22;13567;61.652;17.100;2022-10-16T08:08:19;17.00;99.90
25708;DHT22;13567;61.652;17.100;2022-10-16T08:10:46;15.50;99.90
25708;DHT22;13567;61.652;17.100;2022-10-16T08:13:13;14.60;99.90
25708;DHT22;13567;61.652;17.100;2022-10-16T08:15:43;13.80;99.90
25708;DHT22;13567;61.652;17.100;2022-10-16T08:18:12;13.30;99.90
25708;DHT22;13567;61.652;17.100;2022-10-16T08:20:39;13.60;99.90
25708;DHT22;13567;61.652;17.100;2022-10-16T08:23:08;13.60;99.90
25708;DHT22;13567;61.652;17.100;2022-10-16T08:25:36;13.70;99.90
25708;DHT22;13567;61.652;17.100;2022-10-16T08:28:04;13.70;99.90
25708;DHT22;13567;61.652;17.100;2022-10-16T08:30:32;14.80;99.90
25708;DHT22;13567;61.652;17.100;2022-10-16T08:33:01;15.60;99.90
25708;DHT22;13567;61.652;17.100;2022-10-16T08:35:28;14.70;99.90
25708;DHT22;13567;61.652;17.100;2022-10-16T08:37:55;14.00;99.90
25708;DHT22;13567;61.652;17.100;2022-10-16T08:40:28;13.20;99.90
25708;DHT22;13567;61.652;17.100;2022-10-16T08:46:02;12.70;99.90
25708;DHT22;13567;61.652;17.100;2022-10-16T08:48:49;12.70;99.90
25708;DHT22;13567;61.652;17.100;2022-10-16T08:51:36;12.80;99.90
25708;DHT22;13567;61.652;17.100;2022-10-16T08:56:47;12.50;99.90
25708;DHT22;13567;61.652;17.100;2022-10-16T08:59:16;12.40;99.90
25708;DHT22;13567;61.652;17.100;2022-10-16T09:01:49;12.50;99.90
25708;DHT22;13567;61.652;17.100;2022-10-16T09:15:25;16.70;99.90
25708;DHT22;13567;61.652;17.100;2022-10-16T09:20:51;18.70;99.90
25708;DHT22;13567;61.652;17.100;2022-10-16T09:23:28;19.40;99.90
25708;DHT22;13567;61.652;17.100;2022-10-16T09:25:56;19.80;99.90
25708;DHT22;13567;61.652;17.100;2022-10-16T09:28:24;19.20;99.90
25708;DHT22;13567;61.652;17.100;2022-10-16T09:30:51;19.80;99.90
25708;DHT22;13567;61.652;17.100;2022-10-16T09:33:22;19.40;99.90
25708;DHT22;13567;61.652;17.100;2022-10-16T09:35:51;19.40;99.90
25708;DHT22;13567;61.652;17.100;2022-10-16T09:38:26;18.50;99.90
25708;DHT22;13567;61.652;17.100;2022-10-16T09:40:56;18.90;99.90
25708;DHT22;13567;61.652;17.100;2022-10-16T09:43:36;19.30;99.90
25708;DHT22;13567;61.652;17.100;2022-10-16T09:46:26;19.50;99.90
25708;DHT22;13567;61.652;17.100;2022-10-16T09:48:57;19.80;99.90
25708;DHT22;13567;61.652;17.100;2022-10-16T09:51:33;19.90;99.00
25708;DHT22;13567;61.652;17.100;2022-10-16T09:56:37;20.30;97.60
25708;DHT22;13567;61.652;17.100;2022-10-16T09:59:13;20.80;96.50
25708;DHT22;13567;61.652;17.100;2022-10-16T10:01:45;19.00;98.80
25708;DHT22;13567;61.652;17.100;2022-10-16T10:04:13;19.10;99.90
25708;DHT22;13567;61.652;17.100;2022-10-16T10:06:45;19.30;98.90
25708;DHT22;13567;61.652;17.100;2022-10-16T10:11:57;19.10;97.80
25708;DHT22;13567;61.652;17.100;2022-10-16T10:17:01;19.10;98.20
25708;DHT22;13567;61.652;17.100;2022-10-16T10:19:29;19.60;99.10
25708;DHT22;13567;61.652;17.100;2022-10-16T10:21:58;19.40;97.60
25708;DHT22;13567;61.652;17.100;2022-10-16T10:24:25;18.70;97.80
25708;DHT22;13567;61.652;17.100;2022-10-16T10:27:04;17.70;99.90
25708;DHT22;13567;61.652;17.100;2022-10-16T10:35:22;15.40;99.90
25708;DHT22;13567;61.652;17.100;2022-10-16T10:41:04;14.10;99.90
25708;DHT22;13567;61.652;17.100;2022-10-16T10:43:43;13.50;99.90
25708;DHT22;13567;61.652;17.100;2022-10-16T10:46:28;13.20;99.90
25708;DHT22;13567;61.652;17.100;2022-10-16T10:57:30;14.40;99.90
25708;DHT22;13567;61.652;17.100;2022-10-16T11:00:06;13.90;99.90
25708;DHT22;13567;61.652;17.100;2022-10-16T11:08:20;15.80;99.90
25708;DHT22;13567;61.652;17.100;2022-10-16T11:11:04;14.60;99.90
25708;DHT22;13567;61.652;17.100;2022-10-16T11:13:55;14.60;99.90
25708;DHT22;13567;61.652;17.100;2022-10-16T11:16:35;15.10;99.90
25708;DHT22;13567;61.652;17.100;2022-10-16T11:19:22;15.80;99.90
25708;DHT22;13567;61.652;17.100;2022-10-16T11:22:00;17.50;99.90
25708;DHT22;13567;61.652;17.100;2022-10-16T11:27:17;19.50;96.50
25708;DHT22;13567;61.652;17.100;2022-10-16T11:29:59;20.40;93.70
25708;DHT22;13567;61.652;17.100;2022-10-16T11:32:33;20.70;92.00
25708;DHT22;13567;61.652;17.100;2022-10-16T11:35:10;21.40;91.70
25708;DHT22;13567;61.652;17.100;2022-10-16T11:37:42;22.00;90.10
25708;DHT22;13567;61.652;17.100;2022-10-16T11:40:30;21.30;90.50
25708;DHT22;13567;61.652;17.100;2022-10-16T11:43:22;19.80;91.40
25708;DHT22;13567;61.652;17.100;2022-10-16T11:45:56;17.70;94.90
25708;DHT22;13567;61.652;17.100;2022-10-16T11:48:36;17.30;97.80
25708;DHT22;13567;61.652;17.100;2022-10-16T11:51:14;16.70;98.10
25708;DHT22;13567;61.652;17.100;2022-10-16T11:53:58;15.90;99.90
25708;DHT22;13567;61.652;17.100;2022-10-16T11:56:28;14.40;99.90
25708;DHT22;13567;61.652;17.100;2022-10-16T11:59:29;13.80;99.90
25708;DHT22;13567;61.652;17.100;2022-10-16T12:02:33;13.60;99.90
25708;DHT22;13567;61.652;17.100;2022-10-16T12:08:07;13.50;99.90
25708;DHT22;13567;61.652;17.100;2022-10-16T12:10:36;15.10;99.90
25708;DHT22;13567;61.652;17.100;2022-10-16T12:15:51;17.90;97.90
25708;DHT22;13567;61.652;17.100;2022-10-16T12:18:25;18.00;97.00
25708;DHT22;13567;61.652;17.100;2022-10-16T12:20:59;18.20;97.00
25708;DHT22;13567;61.652;17.100;2022-10-16T12:23:46;18.90;95.60
25708;DHT22;13567;61.652;17.100;2022-10-16T12:26:14;18.10;95.30
25708;DHT22;13567;61.652;17.100;2022-10-16T12:28:50;17.70;96.60
25708;DHT22;13567;61.652;17.100;2022-10-16T12:31:18;17.80;96.90
25708;DHT22;13567;61.652;17.100;2022-10-16T12:34:20;17.50;97.10
25708;DHT22;13567;61.652;17.100;2022-10-16T12:36:48;17.50;97.70
25708;DHT22;13567;61.652;17.100;2022-10-16T12:39:23;17.90;95.80
25708;DHT22;13567;61.652;17.100;2022-10-16T12:42:03;18.00;96.60
25708;DHT22;13567;61.652;17.100;2022-10-16T12:44:35;18.40;94.80
25708;DHT22;13567;61.652;17.100;2022-10-16T12:47:02;18.70;94.50
25708;DHT22;13567;61.652;17.100;2022-10-16T12:49:34;18.30;94.70
25708;DHT22;13567;61.652;17.100;2022-10-16T12:52:03;17.40;96.30
25708;DHT22;13567;61.652;17.100;2022-10-16T12:54:36;16.20;98.00
25708;DHT22;13567;61.652;17.100;2022-10-16T13:07:52;13.50;99.90
25708;DHT22;13567;61.652;17.100;2022-10-16T13:15:52;13.80;99.90
25708;DHT22;13567;61.652;17.100;2022-10-16T13:26:31;12.90;99.90
25708;DHT22;13567;61.652;17.100;2022-10-16T13:29:01;12.70;99.90
25708;DHT22;13567;61.652;17.100;2022-10-16T13:31:30;12.40;99.90
25708;DHT22;13567;61.652;17.100;2022-10-16T13:34:00;12.30;99.90
25708;DHT22;13567;61.652;17.100;2022-10-16T13:36:33;12.10;99.90
25708;DHT22;13567;61.652;17.100;2022-10-16T13:39:15;12.10;99.90
25708;DHT22;13567;61.652;17.100;2022-10-16T13:44:39;12.50;99.90
25708;DHT22;13567;61.652;17.100;2022-10-16T13:47:19;13.80;99.90
25708;DHT22;13567;61.652;17.100;2022-10-16T13:49:46;14.80;99.90
25708;DHT22;13567;61.652;17.100;2022-10-16T13:52:18;14.50;99.90
25708;DHT22;13567;61.652;17.100;2022-10-16T13:54:46;13.80;99.90
25708;DHT22;13567;61.652;17.100;2022-10-16T13:57:16;13.40;99.90
25708;DHT22;13567;61.652;17.100;2022-10-16T13:59:59;13.40;99.90
25708;DHT22;13567;61.652;17.100;2022-10-16T14:04:57;12.70;99.90
25708;DHT22;13567;61.652;17.100;2022-10-16T14:07:30;12.80;99.90
25708;DHT22;13567;61.652;17.100;2022-10-16T14:10:06;12.90;99.90
25708;DHT22;13567;61.652;17.100;2022-10-16T14:12:34;13.10;99.90
25708;DHT22;13567;61.652;17.100;2022-10-16T14:15:02;13.30;99.90
25708;DHT22;13567;61.652;17.100;2022-10-16T14:17:31;13.60;99.90
25708;DHT22;13567;61.652;17.100;2022-10-16T14:20:00;14.10;99.90
25708;DHT22;13567;61.652;17.100;2022-10-16T14:22:40;14.40;99.90
25708;DHT22;13567;61.652;17.100;2022-10-16T14:28:00;15.50;99.90
25708;DHT22;13567;61.652;17.100;2022-10-16T14:30:35;15.60;99.90
25708;DHT22;13567;61.652;17.100;2022-10-16T14:33:05;15.20;99.90
25708;DHT22;13567;61.652;17.100;2022-10-16T14:35:38;14.50;99.90
25708;DHT22;13567;61.652;17.100;2022-10-16T14:38:14;13.90;99.90
25708;DHT22;13567;61.652;17.100;2022-10-16T14:40:47;13.30;99.90
25708;DHT22;13567;61.652;17.100;2022-10-16T14:43:37;12.80;99.90
25708;DHT22;13567;61.652;17.100;2022-10-16T14:46:12;12.40;99.90
25708;DHT22;13567;61.652;17.100;2022-10-16T14:48:48;12.10;99.90
25708;DHT22;13567;61.652;17.100;2022-10-16T14:51:17;11.90;99.90
25708;DHT22;13567;61.652;17.100;2022-10-16T14:53:46;11.70;99.90
25708;DHT22;13567;61.652;17.100;2022-10-16T14:56:19;11.50;99.90
25708;DHT22;13567;61.652;17.100;2022-10-16T14:58:47;11.40;99.90
25708;DHT22;13567;61.652;17.100;2022-10-16T15:01:14;11.20;99.90
25708;DHT22;13567;61.652;17.100;2022-10-16T15:03:41;11.10;99.90
25708;DHT22;13567;61.652;17.100;2022-10-16T15:06:15;11.10;99.90
25708;DHT22;13567;61.652;17.100;2022-10-16T15:08:42;11.00;99.90
25708;DHT22;13567;61.652;17.100;2022-10-16T15:11:17;10.90;99.90
25708;DHT22;13567;61.652;17.100;2022-10-16T15:13:45;10.80;99.90
25708;DHT22;13567;61.652;17.100;2022-10-16T15:16:16;10.70;99.90
25708;DHT22;13567;61.652;17.100;2022-10-16T15:18:43;10.50;99.90
25708;DHT22;13567;61.652;17.100;2022-10-16T15:21:25;10.40;99.90
25708;DHT22;13567;61.652;17.100;2022-10-16T15:23:53;10.20;99.90
25708;DHT22;13567;61.652;17.100;2022-10-16T15:26:20;10.00;99.90
25708;DHT22;13567;61.652;17.100;2022-10-16T15:28:47;9.90;99.90
25708;DHT22;13567;61.652;17.100;2022-10-16T15:31:14;9.80;99.90
25708;DHT22;13567;61.652;17.100;2022-10-16T15:33:41;9.70;99.90
25708;DHT22;13567;61.652;17.100;2022-10-16T15:36:08;9.60;99.90
25708;DHT22;13567;61.652;17.100;2022-10-16T15:38:35;9.50;99.90
25708;DHT22;13567;61.652;17.100;2022-10-16T15:41:02;9.30;99.90
25708;DHT22;13567;61.652;17.100;2022-10-16T15:43:29;9.20;99.90
25708;DHT22;13567;61.652;17.100;2022-10-16T15:46:04;9.10;99.90
25708;DHT22;13567;61.652;17.100;2022-10-16T15:48:32;9.10;99.90
25708;DHT22;13567;61.652;17.100;2022-10-16T15:51:00;9.00;99.90
25708;DHT22;13567;61.652;17.100;2022-10-16T15:53:31;8.90;99.90
25708;DHT22;13567;61.652;17.100;2022-10-16T15:56:00;8.90;99.90
25708;DHT22;13567;61.652;17.100;2022-10-16T15:58:28;8.80;99.90
25708;DHT22;13567;61.652;17.100;2022-10-16T16:00:59;8.80;99.90
25708;DHT22;13567;61.652;17.100;2022-10-16T16:03:31;8.70;99.90
25708;DHT22;13567;61.652;17.100;2022-10-16T16:06:03;8.60;99.90
25708;DHT22;13567;61.652;17.100;2022-10-16T16:08:30;8.50;99.90
25708;DHT22;13567;61.652;17.100;2022-10-16T16:11:02;8.50;99.90
25708;DHT22;13567;61.652;17.100;2022-10-16T16:13:29;8.30;99.90
25708;DHT22;13567;61.652;17.100;2022-10-16T16:15:56;8.20;99.90
25708;DHT22;13567;61.652;17.100;2022-10-16T16:18:23;8.10;99.90
25708;DHT22;13567;61.652;17.100;2022-10-16T16:20:51;8.10;99.90
25708;DHT22;13567;61.652;17.100;2022-10-16T16:23:18;8.10;99.90
25708;DHT22;13567;61.652;17.100;2022-10-16T16:26:06;8.10;99.90
25708;DHT22;13567;61.652;17.100;2022-10-16T16:28:33;8.10;99.90
25708;DHT22;13567;61.652;17.100;2022-10-16T16:31:00;8.20;99.90
25708;DHT22;13567;61.652;17.100;2022-10-16T16:33:27;8.30;99.90
25708;DHT22;13567;61.652;17.100;2022-10-16T16:35:59;8.30;99.90
25708;DHT22;13567;61.652;17.100;2022-10-16T16:38:27;8.30;99.90
25708;DHT22;13567;61.652;17.100;2022-10-16T16:40:55;8.30;99.90
25708;DHT22;13567;61.652;17.100;2022-10-16T16:43:26;8.20;99.90
25708;DHT22;13567;61.652;17.100;2022-10-16T16:45:54;8.20;99.90
25708;DHT22;13567;61.652;17.100;2022-10-16T16:48:22;8.10;99.90
25708;DHT22;13567;61.652;17.100;2022-10-16T16:50:49;8.10;99.90
25708;DHT22;13567;61.652;17.100;2022-10-16T16:53:16;8.00;99.90
25708;DHT22;13567;61.652;17.100;2022-10-16T16:55:43;8.00;99.90
25708;DHT22;13567;61.652;17.100;2022-10-16T16:58:10;8.00;99.90
25708;DHT22;13567;61.652;17.100;2022-10-16T17:00:41;8.00;99.90
25708;DHT22;13567;61.652;17.100;2022-10-16T17:03:23;8.00;99.90
25708;DHT22;13567;61.652;17.100;2022-10-16T17:06:05;8.00;99.90
25708;DHT22;13567;61.652;17.100;2022-10-16T17:08:34;8.00;99.90
25708;DHT22;13567;61.652;17.100;2022-10-16T17:11:01;8.10;99.90
25708;DHT22;13567;61.652;17.100;2022-10-16T17:13:31;8.00;99.90
25708;DHT22;13567;61.652;17.100;2022-10-16T17:16:01;8.00;99.90
25708;DHT22;13567;61.652;17.100;2022-10-16T17:18:28;8.00;99.90
25708;DHT22;13567;61.652;17.100;2022-10-16T17:20:59;8.00;99.90
25708;DHT22;13567;61.652;17.100;2022-10-16T17:23:26;8.10;99.90
25708;DHT22;13567;61.652;17.100;2022-10-16T17:25:53;8.10;99.90
25708;DHT22;13567;61.652;17.100;2022-10-16T17:28:21;8.10;99.90
25708;DHT22;13567;61.652;17.100;2022-10-16T17:30:48;8.10;99.90
25708;DHT22;13567;61.652;17.100;2022-10-16T17:33:15;8.10;99.90